Time;durP1;ratioP1;P1;durP2;ratioP2;P2;SDS_P1;SDS_P2;PMS_P1;PMS_P2;Temp;Humidity;BMP_temperature;BMP_pressure;BME280_temperature;BME280_humidity;BME280_pressure;Samples;Min_cycle;Max_cycle;Signal;HPM_P1;HPM_P2
2023/01/18 00:00:05;;;;;;;42.33;32.65;;;;;;;-3.86;100.00;98949.00;6119685;23;20080;-85
2023/01/18 00:02:30;;;;;;;46.67;33.25;;;;;;;-3.80;100.00;98952.34;6119358;23;20339;-86
2023/01/18 00:04:56;;;;;;;43.15;32.75;;;;;;;-3.78;100.00;98953.13;6117659;23;20008;-87
2023/01/18 00:07:21;;;;;;;43.33;33.10;;;;;;;-3.84;100.00;98949.84;6119143;23;20387;-87
2023/01/18 00:09:47;;;;;;;41.92;31.88;;;;;;;-3.85;100.00;98948.97;6119363;23;20443;-87
2023/01/18 00:12:12;;;;;;;41.17;32.72;;;;;;;-3.88;100.00;98948.22;6118889;23;20010;-86
2023/01/18 00:14:37;;;;;;;42.45;30.67;;;;;;;-3.91;100.00;98943.91;6118905;23;20045;-86
2023/01/18 00:17:02;;;;;;;35.08;28.10;;;;;;;-3.92;100.00;98947.41;6119008;23;20017;-86
2023/01/18 00:19:28;;;;;;;37.67;27.17;;;;;;;-3.86;100.00;98962.00;6118857;23;20010;-86
2023/01/18 00:21:54;;;;;;;35.95;26.65;;;;;;;-3.87;100.00;98952.50;6119385;23;20140;-86
2023/01/18 00:24:22;;;;;;;34.53;26.20;;;;;;;-3.87;100.00;98962.91;6117764;23;20060;-87
2023/01/18 00:26:48;;;;;;;33.28;25.92;;;;;;;-3.96;100.00;98955.31;6117777;23;20181;-86
2023/01/18 00:29:14;;;;;;;33.58;24.90;;;;;;;-3.97;100.00;98961.38;6117892;23;20051;-87
2023/01/18 00:31:39;;;;;;;33.35;26.88;;;;;;;-4.08;100.00;98962.50;6117592;23;20065;-87
2023/01/18 00:34:05;;;;;;;38.58;28.73;;;;;;;-4.03;100.00;98963.25;6117648;23;20006;-86
2023/01/18 00:36:31;;;;;;;37.85;29.27;;;;;;;-4.08;100.00;98954.69;6116931;23;20002;-86
2023/01/18 00:38:57;;;;;;;43.03;31.60;;;;;;;-4.11;100.00;98965.16;6119545;23;20447;-87
2023/01/18 00:41:22;;;;;;;44.20;33.67;;;;;;;-4.06;100.00;98970.25;6120331;23;20006;-87
2023/01/18 00:43:49;;;;;;;47.75;32.38;;;;;;;-4.19;100.00;98959.25;6120987;23;20645;-87
2023/01/18 00:46:23;;;;;;;41.97;30.35;;;;;;;-4.12;100.00;98975.59;6093407;23;20017;-85
2023/01/18 00:48:48;;;;;;;;;;;;;;;-4.17;100.00;98978.28;6093490;23;20021;-87
2023/01/18 00:51:20;;;;;;;36.35;28.73;;;;;;;-4.23;100.00;98972.34;6119905;23;19912;-87
2023/01/18 00:53:46;;;;;;;34.15;28.85;;;;;;;-4.19;100.00;98979.19;6119070;23;20025;-87
2023/01/18 00:56:15;;;;;;;38.45;28.88;;;;;;;-4.21;100.00;98987.03;6119266;23;20022;-87
2023/01/18 00:58:40;;;;;;;34.28;27.75;;;;;;;-4.21;100.00;98975.78;6119866;23;20013;-87
2023/01/18 01:01:06;;;;;;;36.65;27.23;;;;;;;-4.18;100.00;98978.28;6121583;23;20010;-87
2023/01/18 01:06:43;;;;;;;34.90;28.00;;;;;;;-4.23;100.00;98975.78;6118606;23;20009;-86
2023/01/18 01:06:43;;;;;;;36.80;27.50;;;;;;;-4.17;100.00;98983.47;6119418;23;20042;-86
2023/01/18 01:09:16;;;;;;;34.05;26.80;;;;;;;-4.14;100.00;98987.72;6119892;23;20430;-87
2023/01/18 01:28:06;;;;;;;;;;;;;;;-4.09;100.00;98993.72;6120278;23;20028;-87
2023/01/18 01:30:31;;;;;;;25.45;21.33;;;;;;;-4.14;100.00;98979.94;6120004;23;19908;-87
2023/01/18 01:32:57;;;;;;;25.40;20.88;;;;;;;-4.13;100.00;98995.50;6119524;23;20332;-87
2023/01/18 01:35:22;;;;;;;25.85;21.35;;;;;;;-4.20;100.00;98986.13;6120337;23;20025;-87
2023/01/18 01:37:47;;;;;;;29.17;21.25;;;;;;;-4.21;100.00;98999.16;6120644;23;20002;-87
2023/01/18 01:40:13;;;;;;;26.50;20.13;;;;;;;-4.17;100.00;98996.47;6117903;23;20041;-87
2023/01/18 01:42:38;;;;;;;26.50;19.98;;;;;;;-4.23;100.00;98983.59;6127647;23;20005;-87
2023/01/18 01:45:04;;;;;;;24.27;18.25;;;;;;;-4.20;100.00;98996.53;6133020;23;20480;-87
2023/01/18 01:47:38;;;;;;;27.55;18.13;;;;;;;-4.18;100.00;99007.75;6129958;23;20010;-87
2023/01/18 01:50:22;;;;;;;23.00;18.00;;;;;;;-4.23;100.00;98995.72;6137712;23;20009;-87
2023/01/18 01:52:47;;;;;;;24.20;18.80;;;;;;;-4.17;100.00;99001.66;6147839;23;20018;-86
2023/01/18 01:55:35;;;;;;;26.50;18.00;;;;;;;-4.18;100.00;99005.16;6146584;23;20009;-87
2023/01/18 01:58:09;;;;;;;27.63;18.30;;;;;;;-4.12;100.00;99007.63;6128199;23;20022;-85
2023/01/18 02:00:35;;;;;;;22.60;17.95;;;;;;;-4.11;100.00;99014.50;6119010;23;20002;-87
2023/01/18 02:03:04;;;;;;;20.88;18.40;;;;;;;-4.13;100.00;99008.50;6120144;23;20033;-87
2023/01/18 02:05:32;;;;;;;21.52;17.60;;;;;;;-4.09;100.00;99017.09;6121057;23;20010;-84
2023/01/18 02:07:59;;;;;;;23.95;18.02;;;;;;;-4.12;100.00;99011.94;6119831;23;20010;-86
2023/01/18 02:10:26;;;;;;;25.67;17.85;;;;;;;-4.09;100.00;99017.09;6119113;23;20002;-86
2023/01/18 02:12:53;;;;;;;24.70;17.92;;;;;;;-4.16;100.00;99005.13;6117602;23;20088;-86
2023/01/18 02:15:21;;;;;;;24.58;18.80;;;;;;;-4.11;100.00;99009.31;6117645;23;20005;-86
2023/01/18 02:18:10;;;;;;;27.77;18.23;;;;;;;-4.12;100.00;99012.81;6119603;23;20028;-86
2023/01/18 02:21:25;;;;;;;22.58;17.02;;;;;;;-4.06;100.00;99022.22;6119262;23;20372;-86
2023/01/18 02:24:12;;;;;;;21.85;18.63;;;;;;;-4.02;100.00;99018.66;6118344;23;20010;-86
2023/01/18 02:27:04;;;;;;;23.50;16.83;;;;;;;-3.98;100.00;99019.44;6117832;23;20634;-85
2023/01/18 02:29:58;;;;;;;23.27;17.65;;;;;;;-4.02;100.00;99023.84;6083210;23;20471;-86
2023/01/18 02:32:51;;;;;;;22.52;17.25;;;;;;;-4.02;100.00;99014.31;6117340;23;20236;-86
2023/01/18 02:35:35;;;;;;;27.75;18.13;;;;;;;-4.01;100.00;99020.41;6118045;23;20022;-86
2023/01/18 02:38:25;;;;;;;23.25;16.67;;;;;;;-4.01;100.00;99023.00;6117688;23;20009;-86
2023/01/18 02:41:18;;;;;;;32.65;17.90;;;;;;;-4.00;100.00;99022.09;6116564;23;20025;-86
2023/01/18 02:46:37;;;;;;;21.77;17.08;;;;;;;-4.04;100.00;99028.25;6029158;23;20056;-86
2023/01/18 02:49:17;;;;;;;21.13;17.45;;;;;;;-4.03;100.00;99030.78;6028772;23;20018;-86
2023/01/18 02:51:42;;;;;;;21.95;17.80;;;;;;;-4.02;100.00;99035.09;6028478;23;20098;-86
2023/01/18 02:54:10;;;;;;;23.67;18.02;;;;;;;-4.05;100.00;99035.19;6028212;23;20377;-86
2023/01/18 02:56:48;;;;;;;23.20;18.70;;;;;;;-4.27;100.00;99011.38;6028369;23;20099;-85
2023/01/18 02:59:47;;;;;;;27.00;18.23;;;;;;;-4.19;100.00;99029.41;6027073;23;20007;-86
2023/01/18 03:02:15;;;;;;;22.60;17.98;;;;;;;-4.17;100.00;99034.59;6027502;23;20031;-85
2023/01/18 03:04:53;;;;;;;22.05;17.30;;;;;;;-4.18;100.00;99040.66;6027265;23;20023;-86
2023/01/18 03:07:31;;;;;;;25.05;19.50;;;;;;;-4.23;100.00;99026.91;6028706;23;20019;-86
2023/01/18 03:10:01;;;;;;;21.77;18.65;;;;;;;-4.21;100.00;99033.78;6027924;23;20022;-86
2023/01/18 03:12:46;;;;;;;25.35;19.05;;;;;;;-4.28;100.00;99030.44;6028334;23;20011;-86
2023/01/18 03:15:26;;;;;;;27.98;19.23;;;;;;;-4.26;100.00;99038.22;6026898;23;20018;-86
2023/01/18 03:17:56;;;;;;;24.30;18.67;;;;;;;-4.31;100.00;99035.69;6029100;23;20011;-86
2023/01/18 03:20:25;;;;;;;26.75;19.90;;;;;;;-4.29;100.00;99051.25;6029968;23;20169;-86
2023/01/18 03:25:45;;;;;;;26.95;19.92;;;;;;;-4.30;100.00;99039.16;6123288;23;20069;-86
2023/01/18 03:34:02;;;;;;;24.92;20.00;;;;;;;-4.32;100.00;99052.16;6123607;23;20052;-86
2023/01/18 03:36:32;;;;;;;27.10;19.88;;;;;;;-4.30;100.00;99062.53;6121441;23;20150;-85
2023/01/18 03:39:09;;;;;;;25.85;19.67;;;;;;;-4.31;100.00;99055.63;6123729;23;20036;-87
2023/01/18 03:41:42;;;;;;;24.58;19.20;;;;;;;-4.27;100.00;99065.06;6121761;23;20400;-86
2023/01/18 03:44:12;;;;;;;25.00;20.08;;;;;;;-4.27;100.00;99065.06;6117640;23;20655;-86
2023/01/18 03:46:39;;;;;;;22.85;19.38;;;;;;;-4.34;100.00;99066.09;6116468;23;20036;-86
2023/01/18 03:49:06;;;;;;;25.40;19.65;;;;;;;-4.34;100.00;99073.88;6118177;23;20085;-86
2023/01/18 03:51:31;;;;;;;25.80;20.50;;;;;;;-4.37;100.00;99076.53;6117923;23;20022;-86
2023/01/18 03:54:01;;;;;;;24.13;19.92;;;;;;;-4.44;100.00;99067.13;6115537;23;20077;-86
2023/01/18 03:56:57;;;;;;;26.40;20.55;;;;;;;-4.43;100.00;99082.69;6117458;23;20002;-87
2023/01/18 03:59:27;;;;;;;22.35;19.00;;;;;;;-4.46;100.00;99082.75;6118350;23;20014;-86
2023/01/18 04:01:53;;;;;;;26.00;20.98;;;;;;;-4.46;100.00;99071.50;6119575;23;20006;-86
2023/01/18 04:04:18;;;;;;;27.20;20.48;;;;;;;-4.40;100.00;99079.16;6118150;23;20044;-86
2023/01/18 04:06:43;;;;;;;23.13;20.52;;;;;;;-4.37;100.00;99086.91;6121725;23;20010;-86
2023/01/18 04:09:10;;;;;;;26.02;20.92;;;;;;;-4.35;100.00;99095.50;6122650;23;20092;-86
2023/01/18 04:11:35;;;;;;;25.52;20.48;;;;;;;-4.34;100.00;99092.06;6125297;23;20006;-86
2023/01/18 04:14:01;;;;;;;28.80;21.15;;;;;;;-4.38;100.00;99095.59;6144569;23;20061;-86
2023/01/18 04:16:26;;;;;;;25.92;20.13;;;;;;;-4.42;100.00;99094.78;6146508;23;20408;-86
2023/01/18 04:18:51;;;;;;;28.33;21.40;;;;;;;-4.39;100.00;99086.94;6145524;23;20005;-86
2023/01/18 04:21:17;;;;;;;27.33;21.42;;;;;;;-4.34;100.00;99102.44;6120337;23;20025;-87
2023/01/18 04:23:42;;;;;;;25.42;21.63;;;;;;;-4.34;100.00;99105.91;6118214;23;20017;-86
2023/01/18 04:26:07;;;;;;;27.05;21.65;;;;;;;-4.38;100.00;99093.84;6121013;23;20059;-86
2023/01/18 04:28:33;;;;;;;24.85;20.92;;;;;;;-4.37;100.00;99113.75;6122641;23;20013;-86
2023/01/18 04:30:59;;;;;;;27.17;21.90;;;;;;;-4.36;100.00;99109.41;6122282;23;20010;-86
2023/01/18 04:33:25;;;;;;;26.60;21.15;;;;;;;-4.41;100.00;99103.44;6119797;23;20013;-86
2023/01/18 04:35:53;;;;;;;27.15;21.92;;;;;;;-4.38;100.00;99106.00;6121279;23;19998;-86
2023/01/18 04:38:19;;;;;;;26.88;22.23;;;;;;;-4.39;100.00;99106.84;6121965;23;20017;-86
2023/01/18 04:40:44;;;;;;;26.83;22.52;;;;;;;-4.44;100.00;99103.47;6122942;23;20335;-86
2023/01/18 04:43:09;;;;;;;28.92;22.70;;;;;;;-4.37;100.00;99105.09;6122126;23;20013;-86
2023/01/18 04:45:35;;;;;;;27.30;22.98;;;;;;;-4.40;100.00;99113.78;6124075;23;20013;-86
2023/01/18 04:48:00;;;;;;;28.38;23.10;;;;;;;-4.46;100.00;99103.53;6122408;23;20010;-86
2023/01/18 04:50:26;;;;;;;29.95;23.98;;;;;;;-4.44;100.00;99106.94;6122036;23;20005;-86
2023/01/18 04:52:51;;;;;;;29.73;23.13;;;;;;;-4.48;100.00;99113.06;6120868;23;20006;-86
2023/01/18 04:55:16;;;;;;;29.55;22.63;;;;;;;-4.51;100.00;99106.19;6119888;23;20012;-86
2023/01/18 04:57:42;;;;;;;30.20;24.42;;;;;;;-4.48;100.00;99118.25;6120053;23;20043;-86
2023/01/18 05:00:09;;;;;;;31.23;24.42;;;;;;;-4.55;100.00;99117.53;6119972;23;20420;-86
2023/01/18 05:02:34;;;;;;;29.77;23.85;;;;;;;-4.57;100.00;99118.44;6120766;23;20014;-86
2023/01/18 05:05:00;;;;;;;30.05;24.02;;;;;;;-4.52;100.00;99125.25;6118177;23;20359;-86
2023/01/18 05:07:26;;;;;;;28.52;24.83;;;;;;;-4.51;100.00;99133.91;6118988;23;20006;-86
2023/01/18 05:09:51;;;;;;;28.80;24.33;;;;;;;-4.51;100.00;99132.16;6119920;23;20001;-86
2023/01/18 05:12:16;;;;;;;30.50;25.85;;;;;;;-4.56;100.00;99130.50;6119529;23;20026;-86
2023/01/18 05:14:42;;;;;;;30.67;25.40;;;;;;;-4.50;100.00;99143.41;6118208;23;20006;-86
2023/01/18 05:17:07;;;;;;;31.45;25.92;;;;;;;-4.51;100.00;99150.34;6119401;23;20049;-86
2023/01/18 05:19:32;;;;;;;33.10;26.05;;;;;;;-4.48;100.00;99149.41;6118511;23;20013;-86
2023/01/18 05:21:58;;;;;;;33.45;24.92;;;;;;;-4.49;100.00;99157.25;6118925;23;20056;-85
2023/01/18 05:24:23;;;;;;;32.53;25.88;;;;;;;-4.45;100.00;99159.75;6115974;23;20006;-85
2023/01/18 05:26:49;;;;;;;29.80;25.90;;;;;;;-4.46;100.00;99154.59;6119090;23;20006;-85
2023/01/18 05:29:14;;;;;;;29.95;25.75;;;;;;;-4.48;100.00;99149.41;6119533;23;20009;-85
2023/01/18 05:31:40;;;;;;;29.90;25.83;;;;;;;-4.50;100.00;99159.00;6118942;23;20081;-85
2023/01/18 05:34:05;;;;;;;32.45;26.30;;;;;;;-4.50;100.00;99159.00;6118660;23;20064;-85
2023/01/18 05:36:31;;;;;;;28.92;25.48;;;;;;;-4.52;100.00;99169.38;6118316;23;20006;-85
2023/01/18 05:38:56;;;;;;;32.53;24.95;;;;;;;-4.60;100.00;99162.59;6119626;23;20005;-86
2023/01/18 05:41:21;;;;;;;33.15;26.70;;;;;;;-4.57;100.00;99166.00;6120046;23;20033;-86
2023/01/18 05:43:46;;;;;;;32.75;26.05;;;;;;;-4.56;100.00;99165.13;6119563;23;20006;-86
2023/01/18 05:46:12;;;;;;;32.42;26.63;;;;;;;-4.58;100.00;99169.50;6116510;23;20014;-86
2023/01/18 05:48:37;;;;;;;31.40;27.13;;;;;;;-4.53;100.00;99174.63;6118971;23;20734;-86
2023/01/18 05:51:08;;;;;;;34.72;27.88;;;;;;;-4.53;100.00;99187.59;6118857;23;20048;-87
2023/01/18 05:53:34;;;;;;;33.90;27.98;;;;;;;-4.51;100.00;99181.50;6117702;23;20462;-85
2023/01/18 05:56:04;;;;;;;35.28;27.40;;;;;;;-4.55;100.00;99174.66;6118288;23;19998;-86
2023/01/18 05:58:30;;;;;;;34.90;28.15;;;;;;;-4.50;100.00;99187.56;6118520;23;20567;-85
2023/01/18 06:00:55;;;;;;;32.25;28.00;;;;;;;-4.53;100.00;99177.22;6116783;23;20010;-86
2023/01/18 06:03:21;;;;;;;34.03;25.75;;;;;;;-4.49;100.00;99188.41;6117586;23;20021;-85
2023/01/18 06:05:47;;;;;;;40.80;27.98;;;;;;;-4.51;100.00;99197.09;6118474;23;20006;-85
2023/01/18 06:08:14;;;;;;;30.77;25.92;;;;;;;-4.54;100.00;99197.13;6117905;23;20009;-85
2023/01/18 06:10:39;;;;;;;33.17;27.42;;;;;;;-4.52;100.00;99203.13;6118213;23;20061;-85
2023/01/18 06:13:05;;;;;;;33.92;26.88;;;;;;;-4.59;100.00;99195.50;6114981;23;20010;-85
2023/01/18 06:15:31;;;;;;;30.15;25.60;;;;;;;-4.58;100.00;99203.25;6117778;23;19998;-86
2023/01/18 06:17:58;;;;;;;31.15;26.00;;;;;;;-4.60;100.00;99211.94;6119052;23;20005;-85
2023/01/18 06:20:24;;;;;;;29.25;25.95;;;;;;;-4.88;100.00;99172.59;6119116;23;20009;-85
2023/01/18 06:22:49;;;;;;;31.77;26.90;;;;;;;-4.62;100.00;99219.75;6118858;23;20006;-85
2023/01/18 06:25:15;;;;;;;33.22;26.88;;;;;;;-4.65;100.00;99214.59;6126187;23;19998;-85
2023/01/18 06:27:40;;;;;;;35.72;27.25;;;;;;;-4.65;100.00;99224.13;6122344;23;20009;-85
2023/01/18 06:30:07;;;;;;;33.08;27.58;;;;;;;-4.67;100.00;99226.75;6123483;23;20009;-85
2023/01/18 06:32:32;;;;;;;32.10;26.17;;;;;;;-4.84;100.00;99208.84;6128579;23;20080;-86
2023/01/18 06:34:57;;;;;;;30.95;26.77;;;;;;;-4.68;100.00;99235.44;6128643;23;19998;-86
2023/01/18 06:37:24;;;;;;;21.88;14.65;;;;;;;-4.71;100.00;99240.66;6144100;23;20013;-85
2023/01/18 06:39:50;;;;;;;31.40;26.25;;;;;;;-4.72;100.00;99232.88;6147097;23;20013;-85
2023/01/18 06:42:15;;;;;;;32.17;26.50;;;;;;;-4.72;100.00;99238.97;6145802;23;20013;-85
2023/01/18 06:44:40;;;;;;;30.55;26.20;;;;;;;-4.70;100.00;99244.97;6144418;23;20014;-85
2023/01/18 06:47:06;;;;;;;32.72;27.35;;;;;;;-4.65;100.00;99242.31;6127587;23;20067;-85
2023/01/18 06:49:31;;;;;;;30.50;26.35;;;;;;;-4.72;100.00;99238.06;6122356;23;20012;-85
2023/01/18 06:51:56;;;;;;;34.80;27.05;;;;;;;-4.65;100.00;99253.53;6122162;23;20014;-85
2023/01/18 06:54:21;;;;;;;30.73;26.80;;;;;;;-4.59;100.00;99255.22;6122581;23;20416;-85
2023/01/18 06:56:47;;;;;;;33.17;27.30;;;;;;;-4.64;100.00;99244.91;6122227;23;20457;-85
2023/01/18 06:59:12;;;;;;;33.88;25.73;;;;;;;-4.63;100.00;99251.81;6123956;23;20013;-84
2023/01/18 07:01:37;;;;;;;29.25;25.75;;;;;;;-4.59;100.00;99268.19;6122063;23;20209;-84
2023/01/18 07:04:04;;;;;;;35.45;26.77;;;;;;;-4.55;100.00;99269.88;6118761;23;20028;-85
2023/01/18 07:06:31;;;;;;;30.40;26.85;;;;;;;-4.55;100.00;99275.91;6120243;23;20006;-85
2023/01/18 07:08:56;;;;;;;31.10;25.77;;;;;;;-4.54;100.00;99272.44;6119706;23;20070;-85
2023/01/18 07:11:22;;;;;;;34.67;26.30;;;;;;;-4.52;100.00;99272.38;6118072;23;20125;-84
2023/01/18 07:13:48;;;;;;;32.38;25.95;;;;;;;-4.52;100.00;99281.03;6116781;23;20446;-84
2023/01/18 07:16:16;;;;;;;32.28;27.33;;;;;;;-4.63;100.00;99267.38;6117442;23;20010;-84
2023/01/18 07:18:44;;;;;;;33.20;26.92;;;;;;;-4.52;100.00;99285.38;6117874;23;20013;-84
2023/01/18 07:21:10;;;;;;;30.88;26.40;;;;;;;-4.52;100.00;99287.97;6117934;23;20080;-84
2023/01/18 07:23:38;;;;;;;33.10;26.38;;;;;;;-4.54;100.00;99290.59;6116147;23;20379;-84
2023/01/18 07:26:09;;;;;;;33.33;26.90;;;;;;;-4.52;100.00;99291.41;6119289;23;20057;-84
2023/01/18 07:28:35;;;;;;;35.70;26.50;;;;;;;-4.55;100.00;99283.69;6117080;23;20054;-83
2023/01/18 07:31:01;;;;;;;32.40;26.67;;;;;;;-4.50;100.00;99294.03;6117283;23;20010;-84
2023/01/18 07:33:27;;;;;;;32.13;25.42;;;;;;;-4.47;100.00;99293.97;6116319;23;20010;-83
2023/01/18 07:35:54;;;;;;;33.60;26.95;;;;;;;-4.41;100.00;99301.66;6117937;23;20002;-83
2023/01/18 07:38:21;;;;;;;35.50;27.02;;;;;;;-4.40;100.00;99308.56;6115302;23;20194;-83
2023/01/18 07:40:46;;;;;;;30.40;26.02;;;;;;;-4.47;100.00;99290.50;6117122;23;20002;-83
2023/01/18 07:43:14;;;;;;;30.30;24.90;;;;;;;-4.40;100.00;99311.16;6117384;23;20009;-83
2023/01/18 07:45:39;;;;;;;34.00;26.67;;;;;;;-4.41;100.00;99311.19;6116245;23;20217;-83
2023/01/18 07:48:04;;;;;;;29.75;26.52;;;;;;;-4.39;100.00;99306.81;6115489;23;20550;-83
2023/01/18 07:50:32;;;;;;;29.85;24.58;;;;;;;-4.39;100.00;99317.22;6116093;23;20031;-83
2023/01/18 07:53:03;;;;;;;32.15;26.60;;;;;;;-4.36;100.00;99318.03;6115922;23;20009;-83
2023/01/18 07:55:29;;;;;;;32.53;25.67;;;;;;;-4.32;100.00;99318.84;6116425;23;20009;-84
2023/01/18 07:57:54;;;;;;;33.25;25.98;;;;;;;-4.30;100.00;99325.75;6116857;23;20380;-84
2023/01/18 08:00:20;;;;;;;31.30;25.98;;;;;;;-4.30;100.00;99328.34;6116290;23;20013;-83
2023/01/18 08:02:49;;;;;;;31.73;25.65;;;;;;;-4.32;100.00;99322.31;6116516;23;20006;-84
2023/01/18 08:05:16;;;;;;;30.50;24.73;;;;;;;-4.37;100.00;99326.72;6115563;23;20002;-84
2023/01/18 08:07:42;;;;;;;28.33;24.17;;;;;;;-4.31;100.00;99329.19;6117584;23;20134;-84
2023/01/18 08:10:07;;;;;;;30.60;24.98;;;;;;;-4.27;100.00;99336.06;6117754;23;20005;-84
2023/01/18 08:12:33;;;;;;;33.17;24.75;;;;;;;-4.30;100.00;99325.75;6115484;23;20029;-84
2023/01/18 08:14:58;;;;;;;28.20;24.98;;;;;;;-4.29;100.00;99327.47;6116576;23;20002;-84
2023/01/18 08:17:23;;;;;;;28.92;24.98;;;;;;;-4.25;100.00;99333.47;6115788;23;20382;-84
2023/01/18 08:19:49;;;;;;;29.85;25.50;;;;;;;-4.23;100.00;99344.69;6116708;23;20666;-84
2023/01/18 08:22:14;;;;;;;32.72;24.58;;;;;;;-4.15;100.00;99350.63;6114593;23;20197;-84
2023/01/18 08:24:39;;;;;;;31.45;24.40;;;;;;;-4.17;100.00;99351.53;6115462;23;20089;-84
2023/01/18 08:27:05;;;;;;;27.33;24.23;;;;;;;-4.19;100.00;99351.56;6117937;23;20378;-84
2023/01/18 08:29:30;;;;;;;27.92;24.27;;;;;;;-4.16;100.00;99348.91;6123456;23;20005;-84
2023/01/18 08:31:55;;;;;;;28.55;24.63;;;;;;;-4.17;100.00;99344.59;6135627;23;19994;-83
2023/01/18 08:34:20;;;;;;;29.63;24.80;;;;;;;-4.08;100.00;99349.66;6141426;23;20009;-84
2023/01/18 08:36:46;;;;;;;29.35;23.90;;;;;;;-4.08;100.00;99354.84;6141234;23;20005;-83
2023/01/18 08:39:13;;;;;;;32.42;24.30;;;;;;;-4.13;100.00;99348.03;6139558;23;20021;-85
2023/01/18 08:41:40;;;;;;;29.30;23.45;;;;;;;-4.04;100.00;99351.31;6137981;23;20010;-83
2023/01/18 08:44:06;;;;;;;33.60;25.63;;;;;;;-4.04;100.00;99356.53;6129833;23;20005;-83
2023/01/18 08:46:31;;;;;;;28.52;24.27;;;;;;;-3.97;100.00;99366.81;6124840;23;20212;-85
2023/01/18 08:48:58;;;;;;;28.05;23.38;;;;;;;-3.94;100.00;99369.38;6127469;23;20105;-85
2023/01/18 08:51:24;;;;;;;29.40;24.02;;;;;;;-3.92;100.00;99378.88;6143848;23;20001;-82
2023/01/18 08:53:52;;;;;;;26.90;23.77;;;;;;;-3.91;100.00;99384.94;6145824;23;20192;-83
2023/01/18 08:56:19;;;;;;;28.30;23.73;;;;;;;-3.87;100.00;99382.25;6141235;23;20060;-83
2023/01/18 08:58:44;;;;;;;27.85;24.48;;;;;;;-3.82;100.00;99387.38;6119068;23;20056;-82
2023/01/18 09:01:10;;;;;;;29.58;24.50;;;;;;;-3.78;100.00;99391.63;6120222;23;20080;-83
2023/01/18 09:03:36;;;;;;;28.73;23.75;;;;;;;-3.77;100.00;99388.16;6119479;23;20324;-83
2023/01/18 09:06:03;;;;;;;28.05;22.60;;;;;;;-3.66;100.00;99401.00;6121434;23;20063;-83
2023/01/18 09:08:29;;;;;;;26.90;24.00;;;;;;;-3.64;100.00;99400.06;6119674;23;20504;-82
2023/01/18 09:10:54;;;;;;;27.15;23.60;;;;;;;-3.63;100.00;99401.81;6119216;23;20010;-82
2023/01/18 09:13:20;;;;;;;27.88;23.73;;;;;;;-3.60;100.00;99404.34;6118788;23;20029;-83
2023/01/18 09:15:48;;;;;;;29.58;23.55;;;;;;;-3.59;100.00;99403.47;6117234;23;20012;-83
2023/01/18 09:18:13;;;;;;;28.70;23.08;;;;;;;-3.58;100.00;99404.31;6118540;23;20332;-84
2023/01/18 09:20:39;;;;;;;29.13;23.05;;;;;;;-3.58;100.00;99401.72;6118259;23;20009;-83
2023/01/18 09:23:08;;;;;;;28.05;23.90;;;;;;;-3.56;100.00;99413.78;6118360;23;20332;-81
2023/01/18 09:25:36;;;;;;;27.23;23.48;;;;;;;-3.52;100.00;99420.66;6117895;23;20514;-84
2023/01/18 09:30:42;;;;;;;27.65;24.65;;;;;;;-3.44;100.00;99425.75;6126496;23;20064;-84
2023/01/18 09:33:10;;;;;;;27.90;24.08;;;;;;;-3.41;100.00;99428.31;6175930;23;20013;-83
2023/01/18 09:35:35;;;;;;;26.90;23.88;;;;;;;-3.41;100.00;99427.44;6177717;23;20009;-83
2023/01/18 09:38:00;;;;;;;27.23;24.30;;;;;;;-3.40;100.00;99436.97;6181253;23;20344;-83
2023/01/18 09:40:41;;;;;;;26.83;23.08;;;;;;;-3.35;100.00;99436.00;6188910;23;20005;-84
2023/01/18 09:43:16;;;;;;;30.13;24.42;;;;;;;-3.32;100.00;99440.28;6156586;23;20036;-83
2023/01/18 09:45:44;;;;;;;27.10;23.95;;;;;;;-3.28;100.00;99439.38;6203215;23;19997;-84
2023/01/18 09:48:22;;;;;;;29.75;24.88;;;;;;;-3.33;100.00;99433.38;6204816;23;20311;-83
2023/01/18 09:50:48;;;;;;;26.35;23.52;;;;;;;-3.22;100.00;99446.19;6203835;23;19997;-82
2023/01/18 09:53:29;;;;;;;26.90;23.65;;;;;;;-3.27;100.00;99444.53;6200519;23;20050;-83
2023/01/18 09:56:04;;;;;;;26.38;23.63;;;;;;;-3.13;100.00;99448.66;6202795;23;20009;-83
2023/01/18 09:58:41;;;;;;;29.02;24.05;;;;;;;-3.02;100.00;99468.38;6196413;23;20008;-83
2023/01/18 10:01:12;;;;;;;28.92;23.73;;;;;;;-2.96;100.00;99466.56;6182619;23;20020;-83
2023/01/18 10:03:54;;;;;;;25.88;23.05;;;;;;;-2.88;100.00;99462.09;6161171;23;20013;-83
2023/01/18 10:06:29;;;;;;;30.05;24.40;;;;;;;-2.84;100.00;99467.22;6190491;23;20005;-83
2023/01/18 10:09:11;;;;;;;30.67;24.52;;;;;;;-2.76;100.00;99475.75;6205216;23;20019;-83
2023/01/18 10:11:46;;;;;;;25.92;22.58;;;;;;;-2.74;100.00;99465.28;6178689;23;20020;-83
2023/01/18 10:14:34;;;;;;;26.67;23.65;;;;;;;-2.65;100.00;99483.34;6189871;23;20008;-83
2023/01/18 10:17:03;;;;;;;26.30;23.55;;;;;;;-2.60;100.00;99465.88;6178569;23;20179;-82
2023/01/18 10:19:31;;;;;;;28.55;24.13;;;;;;;-2.57;100.00;99471.03;6178823;23;20064;-82
2023/01/18 10:22:07;;;;;;;26.50;22.77;;;;;;;-2.51;100.00;99473.53;6153835;23;20433;-83
2023/01/18 10:24:50;;;;;;;27.65;22.52;;;;;;;-2.46;100.00;99472.56;6179382;23;20005;-84
2023/01/18 10:27:34;;;;;;;26.55;23.48;;;;;;;-2.47;100.00;99476.06;6178272;23;20040;-84
2023/01/18 10:29:59;;;;;;;;;;;;;;;-2.40;100.00;99475.91;6178752;23;20091;-84
2023/01/18 10:32:27;;;;;;;25.80;22.70;;;;;;;-2.29;100.00;99480.91;6177287;23;19959;-84
2023/01/18 10:34:52;;;;;;;25.35;22.65;;;;;;;-2.29;100.00;99468.72;6177057;23;20446;-84
2023/01/18 10:37:26;;;;;;;25.13;22.13;;;;;;;-2.14;100.00;99479.72;6175893;23;20034;-84
2023/01/18 10:39:57;;;;;;;;;;;;;;;-2.16;100.00;99484.13;6177444;23;20011;-84
2023/01/18 10:42:29;;;;;;;27.60;22.92;;;;;;;-2.05;100.00;99480.41;6176287;23;19939;-84
2023/01/18 10:44:56;;;;;;;25.75;21.95;;;;;;;-2.02;100.00;99482.06;6150545;23;20032;-84
2023/01/18 10:47:21;;;;;;;26.80;22.88;;;;;;;-1.95;100.00;99480.19;6176391;23;20035;-84
2023/01/18 10:49:49;;;;;;;25.52;22.85;;;;;;;-1.90;100.00;99470.50;6176466;23;20682;-84
2023/01/18 10:52:26;;;;;;;27.02;22.55;;;;;;;-1.86;100.00;99486.06;6174675;23;20005;-84
2023/01/18 10:54:55;;;;;;;23.65;21.15;;;;;;;-1.77;100.00;99485.00;6175720;23;20122;-84
2023/01/18 10:57:35;;;;;;;23.15;20.65;;;;;;;-1.80;100.00;99479.84;6175041;23;20052;-83
2023/01/18 11:00:11;;;;;;;21.50;19.25;;;;;;;-1.71;100.00;99479.66;6173584;23;20008;-83
2023/01/18 11:02:37;;;;;;;24.33;20.05;;;;;;;-1.64;100.00;99478.59;6175077;23;20056;-84
2023/01/18 11:05:18;;;;;;;22.98;19.55;;;;;;;-1.60;100.00;99482.00;6146940;23;20434;-84
2023/01/18 11:07:43;;;;;;;24.20;19.90;;;;;;;-1.64;100.00;99465.56;6175543;23;20005;-84
2023/01/18 11:10:26;;;;;;;25.75;19.88;;;;;;;-1.58;100.00;99481.09;6173980;23;20052;-84
2023/01/18 11:12:53;;;;;;;21.85;19.65;;;;;;;-1.52;100.00;99480.06;6148226;23;20049;-84
2023/01/18 11:15:18;;;;;;;23.25;18.88;;;;;;;-1.44;100.00;99485.13;6173420;23;20046;-83
2023/01/18 11:17:53;;;;;;;19.92;17.90;;;;;;;-1.44;100.00;99488.56;6175671;23;20390;-84
2023/01/18 11:20:24;;;;;;;20.50;18.20;;;;;;;-1.39;100.00;99491.94;6173271;23;20087;-84
2023/01/18 11:23:00;;;;;;;21.08;18.25;;;;;;;-1.34;100.00;99494.44;6148613;23;20055;-83
2023/01/18 11:25:34;;;;;;;21.08;18.80;;;;;;;-1.24;100.00;99498.56;6173699;23;20032;-83
2023/01/18 11:28:01;;;;;;;21.55;18.30;;;;;;;-1.19;100.00;99482.78;6174547;23;20009;-84
2023/01/18 11:30:26;;;;;;;19.95;17.30;;;;;;;-1.13;100.00;99480.00;6145022;23;20608;-83
2023/01/18 11:32:52;;;;;;;21.33;17.05;;;;;;;-1.08;100.00;99492.06;6175028;23;20001;-83
2023/01/18 11:35:31;;;;;;;20.45;17.55;;;;;;;-1.05;100.00;99491.09;6172887;23;19997;-83
2023/01/18 11:38:01;;;;;;;24.58;18.35;;;;;;;-1.03;100.00;99486.72;6176520;23;20040;-83
2023/01/18 11:40:31;;;;;;;19.80;16.00;;;;;;;-0.93;100.00;99488.19;6172849;23;20084;-83
2023/01/18 11:43:03;;;;;;;20.00;16.38;;;;;;;-0.94;100.00;99483.00;6176112;23;20717;-85
2023/01/18 11:45:34;;;;;;;20.52;15.88;;;;;;;-0.77;100.00;99486.88;6176475;23;20005;-85
2023/01/18 11:48:12;;;;;;;18.40;16.35;;;;;;;-0.77;100.00;99486.88;6177354;23;20019;-83